Terminal Aerodrome Forecast
Issued by NWS

Home | Current Version | Previous Version | Text Only | Print | Product List | Glossary Off
Versions: 1 2 3 4 5 6 7 8 9 10 11 12 13 14 15 16

000
FTUS43 KGRB 292334
TAFAUW
TAF
KAUW 292334Z 3000/3024 05009G14KT P6SM BKN150
     FM300200 07009KT P6SM OVC100
     FM300700 06009G15KT P6SM OVC060
     FM301000 05009G16KT P6SM OVC026
      TEMPO 3010/3012 5SM -RA
     FM301200 07013G20KT 5SM -RA OVC012
     FM302100 07015G22KT 2SM -RA BR OVC010=

USA.gov is the U.S. government's official web portal to all federal, state and local government web resources and services.